Time;durP1;ratioP1;P1;durP2;ratioP2;P2;SDS_P1;SDS_P2;PMS_P1;PMS_P2;Temp;Humidity;BMP_temperature;BMP_pressure;BME280_temperature;BME280_humidity;BME280_pressure;Samples;Min_cycle;Max_cycle;Signal;HPM_P1;HPM_P2
2023/02/04 00:00:52;;;;;;;;;;;;;;;;;;5099740;28;20061;-63
2023/02/04 00:03:18;;;;;;;;;;;;;;;;;;5114959;28;19961;-63
2023/02/04 00:05:44;;;;;;;;;;;;;;;;;;5114532;28;19943;-63
2023/02/04 00:08:10;;;;;;;;;;;;;;;;;;5114896;28;20002;-63
2023/02/04 00:10:36;;;;;;;;;;;;;;;;;;5112173;28;20268;-63
2023/02/04 00:13:02;;;;;;;;;;;;;;;;;;5104444;28;19973;-63
2023/02/04 00:15:28;;;;;;;;;;;;;;;;;;5096785;28;19924;-63
2023/02/04 00:17:54;;;;;;;;;;;;;;;;;;5112893;28;19912;-63
2023/02/04 00:20:19;;;;;;;;;;;;;;;;;;5095656;28;19912;-63
2023/02/04 00:22:45;;;;;;;;;;;;;;;;;;5114218;28;19912;-63
2023/02/04 00:25:11;;;;;;;;;;;;;;;;;;5112266;28;19926;-63
2023/02/04 00:27:37;;;;;;;;;;;;;;;;;;5099856;28;19926;-63
2023/02/04 00:30:03;;;;;;;;;;;;;;;;;;5093324;28;19919;-63
2023/02/04 00:32:29;;;;;;;;;;;;;;;;;;5113901;28;20023;-63
2023/02/04 00:34:55;;;;;;;;;;;;;;;;;;5113780;28;19912;-63
2023/02/04 00:37:21;;;;;;;;;;;;;;;;;;5114010;28;19912;-63
2023/02/04 00:39:47;;;;;;;;;;;;;;;;;;5111239;28;20373;-63
2023/02/04 00:42:13;;;;;;;;;;;;;;;;;;5106073;28;20276;-63
2023/02/04 00:44:39;;;;;;;;;;;;;;;;;;5093550;28;19958;-63
2023/02/04 00:47:05;;;;;;;;;;;;;;;;;;5109656;28;20031;-63
2023/02/04 00:49:30;;;;;;;;;;;;;;;;;;5113694;28;20370;-63
2023/02/04 00:51:56;;;;;;;;;;;;;;;;;;5113494;28;20005;-63
2023/02/04 00:54:22;;;;;;;;;;;;;;;;;;5113344;28;20005;-63
2023/02/04 00:56:48;;;;;;;;;;;;;;;;;;5111053;28;20060;-63
2023/02/04 00:59:14;;;;;;;;;;;;;;;;;;5113628;28;20002;-63
2023/02/04 01:01:40;;;;;;;;;;;;;;;;;;5101367;28;20003;-63
2023/02/04 01:04:06;;;;;;;;;;;;;;;;;;5093437;28;19908;-63
2023/02/04 01:06:32;;;;;;;;;;;;;;;;;;5094205;28;19963;-63
2023/02/04 01:08:58;;;;;;;;;;;;;;;;;;5093239;28;20005;-63
2023/02/04 01:11:24;;;;;;;;;;;;;;;;;;5105474;28;20393;-63
2023/02/04 01:13:50;;;;;;;;;;;;;;;;;;5113054;28;19912;-63
2023/02/04 01:16:15;;;;;;;;;;;;;;;;;;5103112;28;19916;-63
2023/02/04 01:18:41;;;;;;;;;;;;;;;;;;5093092;28;20404;-63
2023/02/04 01:21:07;;;;;;;;;;;;;;;;;;5094120;28;19912;-63
2023/02/04 01:23:33;;;;;;;;;;;;;;;;;;5092933;28;19912;-63
2023/02/04 01:25:59;;;;;;;;;;;;;;;;;;5093940;28;19918;-63
2023/02/04 01:28:25;;;;;;;;;;;;;;;;;;5093152;28;19908;-63
2023/02/04 01:30:51;;;;;;;;;;;;;;;;;;5099015;28;19918;-63
2023/02/04 01:33:17;;;;;;;;;;;;;;;;;;5112938;28;20303;-63
2023/02/04 01:35:43;;;;;;;;;;;;;;;;;;5094351;28;19916;-63
2023/02/04 01:38:09;;;;;;;;;;;;;;;;;;5110816;28;19918;-63
2023/02/04 01:40:35;;;;;;;;;;;;;;;;;;5100132;28;19912;-63
2023/02/04 01:43:00;;;;;;;;;;;;;;;;;;5093691;28;19919;-63
2023/02/04 01:45:29;;;;;;;;;;;;;;;;;;5095202;28;19920;-63
2023/02/04 01:47:55;;;;;;;;;;;;;;;;;;5111199;28;20010;-63
2023/02/04 01:50:21;;;;;;;;;;;;;;;;;;5108996;28;20049;-64
2023/02/04 01:52:47;;;;;;;;;;;;;;;;;;5074238;28;19998;-63
2023/02/04 01:55:12;;;;;;;;;;;;;;;;;;5092199;28;20269;-63
2023/02/04 01:57:38;;;;;;;;;;;;;;;;;;5093550;28;19919;-63
2023/02/04 02:00:04;;;;;;;;;;;;;;;;;;5092458;28;19935;-63
2023/02/04 02:02:30;;;;;;;;;;;;;;;;;;5108472;28;19953;-63
2023/02/04 02:04:56;;;;;;;;;;;;;;;;;;5112131;28;19919;-63
2023/02/04 02:07:22;;;;;;;;;;;;;;;;;;5110916;28;20394;-63
2023/02/04 02:09:48;;;;;;;;;;;;;;;;;;5112116;28;19912;-63
2023/02/04 02:12:14;;;;;;;;;;;;;;;;;;5112258;28;20268;-63
2023/02/04 02:14:40;;;;;;;;;;;;;;;;;;5110700;28;20359;-64
2023/02/04 02:17:07;;;;;;;;;;;;;;;;;;5095313;28;20296;-63
2023/02/04 02:19:33;;;;;;;;;;;;;;;;;;5092100;28;19916;-63
2023/02/04 02:21:58;;;;;;;;;;;;;;;;;;5092467;28;20346;-63
2023/02/04 02:24:25;;;;;;;;;;;;;;;;;;5099951;28;20011;-64
2023/02/04 02:26:51;;;;;;;;;;;;;;;;;;5110082;28;20010;-63
2023/02/04 02:29:16;;;;;;;;;;;;;;;;;;5110872;28;20024;-64
2023/02/04 02:31:42;;;;;;;;;;;;;;;;;;5098417;28;19995;-63
2023/02/04 02:34:08;;;;;;;;;;;;;;;;;;5073912;28;19951;-63
2023/02/04 02:36:34;;;;;;;;;;;;;;;;;;5073627;28;19974;-63
2023/02/04 02:39:00;;;;;;;;;;;;;;;;;;5091886;28;20006;-63
2023/02/04 02:41:26;;;;;;;;;;;;;;;;;;5093082;28;19912;-63
2023/02/04 02:43:52;;;;;;;;;;;;;;;;;;5093220;28;19920;-64
2023/02/04 02:46:18;;;;;;;;;;;;;;;;;;5083326;28;19918;-63
2023/02/04 02:48:44;;;;;;;;;;;;;;;;;;5111857;28;19911;-63
2023/02/04 02:53:36;;;;;;;;;;;;;;;;;;5134465;22;19931;-59
2023/02/04 02:56:03;;;;;;;;;;;;;;;;;;5095416;28;19916;-56
2023/02/04 02:58:31;;;;;;;;;;;;;;;;;;5106063;28;19966;-56
2023/02/04 03:00:57;;;;;;;;;;;;;;;;;;5110442;28;19916;-58
2023/02/04 03:03:23;;;;;;;;;;;;;;;;;;5095607;28;19915;-59
2023/02/04 03:05:49;;;;;;;;;;;;;;;;;;5095540;28;19985;-57
2023/02/04 03:08:15;;;;;;;;;;;;;;;;;;5095701;28;20338;-58
2023/02/04 03:10:41;;;;;;;;;;;;;;;;;;5095661;28;19919;-59
2023/02/04 03:13:07;;;;;;;;;;;;;;;;;;5096570;28;19916;-56
2023/02/04 03:15:33;;;;;;;;;;;;;;;;;;5096388;28;20295;-57
2023/02/04 03:17:59;;;;;;;;;;;;;;;;;;5095295;28;20284;-58
2023/02/04 03:20:24;;;;;;;;;;;;;;;;;;5095419;28;20002;-56
2023/02/04 03:22:50;;;;;;;;;;;;;;;;;;5098778;28;19915;-58
2023/02/04 03:25:16;;;;;;;;;;;;;;;;;;5115168;28;19960;-56
2023/02/04 03:27:42;;;;;;;;;;;;;;;;;;5115062;28;20035;-60
2023/02/04 03:30:08;;;;;;;;;;;;;;;;;;5113975;28;19965;-58
2023/02/04 03:32:34;;;;;;;;;;;;;;;;;;5114833;28;20333;-57
2023/02/04 03:35:00;;;;;;;;;;;;;;;;;;5115010;28;20023;-59
2023/02/04 03:37:26;;;;;;;;;;;;;;;;;;5113449;28;19924;-57
2023/02/04 03:39:52;;;;;;;;;;;;;;;;;;5095570;28;19909;-58
2023/02/04 03:42:18;;;;;;;;;;;;;;;;;;5094969;28;19908;-55
2023/02/04 03:44:44;;;;;;;;;;;;;;;;;;5080700;28;19914;-57
2023/02/04 03:47:09;;;;;;;;;;;;;;;;;;5093891;28;19951;-60
2023/02/04 03:49:35;;;;;;;;;;;;;;;;;;5094797;28;20374;-61
2023/02/04 03:52:01;;;;;;;;;;;;;;;;;;5096101;28;20023;-59
2023/02/04 03:54:27;;;;;;;;;;;;;;;;;;5113183;28;19912;-58
2023/02/04 03:56:53;;;;;;;;;;;;;;;;;;5079260;28;19916;-58
2023/02/04 03:59:19;;;;;;;;;;;;;;;;;;5094583;28;19912;-57
2023/02/04 04:01:45;;;;;;;;;;;;;;;;;;5101541;28;20288;-59
2023/02/04 04:04:11;;;;;;;;;;;;;;;;;;5108162;28;20368;-58
2023/02/04 04:06:37;;;;;;;;;;;;;;;;;;5101632;28;20291;-57
2023/02/04 04:09:03;;;;;;;;;;;;;;;;;;5105953;28;19912;-59
2023/02/04 04:11:29;;;;;;;;;;;;;;;;;;5094348;28;19915;-56
2023/02/04 04:13:55;;;;;;;;;;;;;;;;;;5094468;28;19908;-57
2023/02/04 04:16:21;;;;;;;;;;;;;;;;;;5099429;28;19915;-56
2023/02/04 04:18:47;;;;;;;;;;;;;;;;;;5094633;28;20006;-59
2023/02/04 04:21:13;;;;;;;;;;;;;;;;;;5094397;28;19958;-59
2023/02/04 04:23:39;;;;;;;;;;;;;;;;;;5075719;28;20291;-60
2023/02/04 04:26:05;;;;;;;;;;;;;;;;;;5094419;28;20371;-58
2023/02/04 04:28:31;;;;;;;;;;;;;;;;;;5094097;28;20312;-56
2023/02/04 04:30:57;;;;;;;;;;;;;;;;;;5103666;28;19916;-59
2023/02/04 04:33:22;;;;;;;;;;;;;;;;;;5093921;28;19912;-58
2023/02/04 04:35:48;;;;;;;;;;;;;;;;;;5093771;28;19927;-56
2023/02/04 04:38:14;;;;;;;;;;;;;;;;;;5098608;28;19964;-57
2023/02/04 04:40:40;;;;;;;;;;;;;;;;;;5100252;28;20045;-60
2023/02/04 04:43:06;;;;;;;;;;;;;;;;;;5105302;28;20006;-56
2023/02/04 04:45:32;;;;;;;;;;;;;;;;;;5109919;28;19912;-58
2023/02/04 04:47:58;;;;;;;;;;;;;;;;;;5093856;28;19970;-60
2023/02/04 04:50:24;;;;;;;;;;;;;;;;;;5093642;28;20280;-59
2023/02/04 04:52:50;;;;;;;;;;;;;;;;;;5109142;28;19915;-61
2023/02/04 04:55:16;;;;;;;;;;;;;;;;;;5090422;28;19969;-56
2023/02/04 04:57:42;;;;;;;;;;;;;;;;;;5093442;28;19908;-59
2023/02/04 05:00:08;;;;;;;;;;;;;;;;;;5092880;28;19951;-61
2023/02/04 05:02:34;;;;;;;;;;;;;;;;;;5072382;28;19947;-61
2023/02/04 05:04:59;;;;;;;;;;;;;;;;;;5072406;28;19908;-61
2023/02/04 05:07:26;;;;;;;;;;;;;;;;;;5072985;28;19909;-58
2023/02/04 05:09:52;;;;;;;;;;;;;;;;;;5072523;28;19984;-59
2023/02/04 05:12:18;;;;;;;;;;;;;;;;;;5072402;28;19936;-61
2023/02/04 05:14:44;;;;;;;;;;;;;;;;;;5071809;28;20423;-60
2023/02/04 05:17:10;;;;;;;;;;;;;;;;;;5072858;28;20387;-59
2023/02/04 05:19:36;;;;;;;;;;;;;;;;;;5072735;28;19920;-57
2023/02/04 05:22:02;;;;;;;;;;;;;;;;;;5072959;28;20156;-61
2023/02/04 05:24:28;;;;;;;;;;;;;;;;;;5072523;28;19991;-59
2023/02/04 05:26:54;;;;;;;;;;;;;;;;;;5072694;28;19909;-60
2023/02/04 05:29:19;;;;;;;;;;;;;;;;;;5072429;28;19989;-60
2023/02/04 05:31:45;;;;;;;;;;;;;;;;;;5072626;28;19948;-56
2023/02/04 05:34:11;;;;;;;;;;;;;;;;;;5072577;28;20381;-58
2023/02/04 05:36:37;;;;;;;;;;;;;;;;;;5054326;28;19956;-60
2023/02/04 05:39:03;;;;;;;;;;;;;;;;;;5072480;28;19947;-60
2023/02/04 05:41:29;;;;;;;;;;;;;;;;;;5072913;28;19959;-59
2023/02/04 05:43:55;;;;;;;;;;;;;;;;;;5072222;28;20336;-59
2023/02/04 05:46:21;;;;;;;;;;;;;;;;;;5072211;28;19948;-59
2023/02/04 05:48:47;;;;;;;;;;;;;;;;;;5072455;28;19955;-59
2023/02/04 05:51:13;;;;;;;;;;;;;;;;;;5054324;28;19963;-61
2023/02/04 05:53:39;;;;;;;;;;;;;;;;;;5072239;28;20269;-60
2023/02/04 05:56:04;;;;;;;;;;;;;;;;;;5072083;28;19913;-60
2023/02/04 05:58:32;;;;;;;;;;;;;;;;;;5072149;28;19944;-60
2023/02/04 06:00:58;;;;;;;;;;;;;;;;;;5054232;28;20360;-61
2023/02/04 06:03:24;;;;;;;;;;;;;;;;;;5072185;28;19964;-58
2023/02/04 06:05:50;;;;;;;;;;;;;;;;;;5071949;28;19913;-60
2023/02/04 06:08:16;;;;;;;;;;;;;;;;;;5072101;28;19908;-58
2023/02/04 06:10:42;;;;;;;;;;;;;;;;;;5072133;28;19931;-60
2023/02/04 06:13:08;;;;;;;;;;;;;;;;;;5071956;28;20373;-58
2023/02/04 06:15:34;;;;;;;;;;;;;;;;;;5071931;28;19913;-56
2023/02/04 06:18:00;;;;;;;;;;;;;;;;;;5053882;28;19908;-56
2023/02/04 06:20:26;;;;;;;;;;;;;;;;;;5072017;28;19909;-59
2023/02/04 06:22:53;;;;;;;;;;;;;;;;;;5072302;28;20003;-61
2023/02/04 06:25:19;;;;;;;;;;;;;;;;;;5071696;28;19916;-60
2023/02/04 06:27:45;;;;;;;;;;;;;;;;;;5074098;28;19913;-59
2023/02/04 06:30:11;;;;;;;;;;;;;;;;;;5075926;28;19908;-57
2023/02/04 06:32:36;;;;;;;;;;;;;;;;;;5075984;28;19919;-58
2023/02/04 06:35:02;;;;;;;;;;;;;;;;;;5075818;28;19913;-60
2023/02/04 06:37:28;;;;;;;;;;;;;;;;;;5076214;28;19912;-60
2023/02/04 06:39:56;;;;;;;;;;;;;;;;;;5076435;28;20265;-59
2023/02/04 06:42:22;;;;;;;;;;;;;;;;;;5075832;28;19909;-58
2023/02/04 06:44:48;;;;;;;;;;;;;;;;;;5075604;28;19969;-60
2023/02/04 06:47:14;;;;;;;;;;;;;;;;;;5075715;28;19909;-60
2023/02/04 06:49:40;;;;;;;;;;;;;;;;;;5057872;28;19908;-59
2023/02/04 06:52:05;;;;;;;;;;;;;;;;;;5075752;28;19923;-60
2023/02/04 06:54:31;;;;;;;;;;;;;;;;;;5075490;28;19915;-61
2023/02/04 06:57:05;;;;;;;;;;;;;;;;;;5075533;28;20292;-61
2023/02/04 06:59:31;;;;;;;;;;;;;;;;;;5057475;28;19913;-62
2023/02/04 07:01:57;;;;;;;;;;;;;;;;;;5057444;28;19955;-60
2023/02/04 07:04:23;;;;;;;;;;;;;;;;;;5075274;28;19951;-60
2023/02/04 07:06:49;;;;;;;;;;;;;;;;;;5075338;28;19919;-61
2023/02/04 07:09:15;;;;;;;;;;;;;;;;;;5075339;28;19909;-61
2023/02/04 07:11:41;;;;;;;;;;;;;;;;;;5075190;28;20349;-62
2023/02/04 07:14:09;;;;;;;;;;;;;;;;;;5075211;28;19912;-60
2023/02/04 07:16:35;;;;;;;;;;;;;;;;;;5074955;28;19965;-59
2023/02/04 07:19:00;;;;;;;;;;;;;;;;;;5075103;28;20003;-60
2023/02/04 07:21:26;;;;;;;;;;;;;;;;;;5075126;28;19948;-61
2023/02/04 07:23:52;;;;;;;;;;;;;;;;;;5074960;28;20438;-59
2023/02/04 07:26:18;;;;;;;;;;;;;;;;;;5074962;28;19909;-60
2023/02/04 07:28:44;;;;;;;;;;;;;;;;;;5074912;28;19908;-61
2023/02/04 07:31:10;;;;;;;;;;;;;;;;;;5074979;28;20274;-59
2023/02/04 07:33:36;;;;;;;;;;;;;;;;;;5074844;28;19908;-58
2023/02/04 07:36:02;;;;;;;;;;;;;;;;;;5074626;28;20368;-56
2023/02/04 07:38:28;;;;;;;;;;;;;;;;;;5074452;28;19908;-59
2023/02/04 07:40:54;;;;;;;;;;;;;;;;;;5074671;28;19908;-58
2023/02/04 07:43:20;;;;;;;;;;;;;;;;;;5074642;28;20437;-60
2023/02/04 07:45:45;;;;;;;;;;;;;;;;;;5074473;28;20007;-61
2023/02/04 07:48:11;;;;;;;;;;;;;;;;;;5074993;28;20002;-61
2023/02/04 07:50:37;;;;;;;;;;;;;;;;;;5075138;28;20003;-57
2023/02/04 07:53:03;;;;;;;;;;;;;;;;;;5074418;28;19916;-59
2023/02/04 07:55:29;;;;;;;;;;;;;;;;;;5074127;28;19912;-59
2023/02/04 07:57:55;;;;;;;;;;;;;;;;;;5074394;28;20293;-61
2023/02/04 08:00:21;;;;;;;;;;;;;;;;;;5056383;28;19909;-59
2023/02/04 08:02:47;;;;;;;;;;;;;;;;;;5074290;28;19958;-61
2023/02/04 08:05:13;;;;;;;;;;;;;;;;;;5074175;28;19909;-62
2023/02/04 08:07:39;;;;;;;;;;;;;;;;;;5074186;28;19915;-61
2023/02/04 08:10:05;;;;;;;;;;;;;;;;;;5074205;28;20133;-61
2023/02/04 08:12:31;;;;;;;;;;;;;;;;;;5074092;28;19915;-61
2023/02/04 08:14:56;;;;;;;;;;;;;;;;;;5073742;28;19913;-60
2023/02/04 08:17:22;;;;;;;;;;;;;;;;;;5073999;28;19909;-56
2023/02/04 08:19:48;;;;;;;;;;;;;;;;;;5073996;28;20000;-56
2023/02/04 08:22:14;;;;;;;;;;;;;;;;;;5073906;28;19909;-61
2023/02/04 08:24:40;;;;;;;;;;;;;;;;;;5073563;28;19924;-61
2023/02/04 08:27:06;;;;;;;;;;;;;;;;;;5073804;28;19909;-61
2023/02/04 08:29:32;;;;;;;;;;;;;;;;;;5055833;28;20317;-62
2023/02/04 08:31:58;;;;;;;;;;;;;;;;;;5073714;28;19916;-58
2023/02/04 08:34:24;;;;;;;;;;;;;;;;;;5055628;28;19958;-60
2023/02/04 08:36:50;;;;;;;;;;;;;;;;;;5073484;28;19917;-60
2023/02/04 08:39:16;;;;;;;;;;;;;;;;;;5073474;28;20402;-62
2023/02/04 08:41:41;;;;;;;;;;;;;;;;;;5055508;28;19944;-62
2023/02/04 08:44:07;;;;;;;;;;;;;;;;;;5073475;28;19909;-61
2023/02/04 08:46:33;;;;;;;;;;;;;;;;;;5073413;28;19991;-60
2023/02/04 08:48:59;;;;;;;;;;;;;;;;;;5073365;28;20095;-60
2023/02/04 08:51:25;;;;;;;;;;;;;;;;;;5072648;28;19905;-59
2023/02/04 08:53:51;;;;;;;;;;;;;;;;;;5055859;28;20470;-57
2023/02/04 08:56:19;;;;;;;;;;;;;;;;;;5073060;28;19962;-58
2023/02/04 08:58:45;;;;;;;;;;;;;;;;;;5073271;28;19916;-56
2023/02/04 09:01:11;;;;;;;;;;;;;;;;;;5073187;28;19908;-60
2023/02/04 09:03:37;;;;;;;;;;;;;;;;;;5073373;28;20001;-61
2023/02/04 09:06:03;;;;;;;;;;;;;;;;;;5073067;28;20308;-59
2023/02/04 09:08:28;;;;;;;;;;;;;;;;;;5072991;28;19915;-62
2023/02/04 09:10:54;;;;;;;;;;;;;;;;;;5072996;28;19979;-60
2023/02/04 09:13:20;;;;;;;;;;;;;;;;;;5054996;28;20373;-61
2023/02/04 09:15:46;;;;;;;;;;;;;;;;;;5072780;28;19913;-62
2023/02/04 09:18:17;;;;;;;;;;;;;;;;;;5072883;28;19915;-61
2023/02/04 09:20:43;;;;;;;;;;;;;;;;;;5073125;28;19912;-59
2023/02/04 09:23:10;;;;;;;;;;;;;;;;;;5072694;28;20368;-60
2023/02/04 09:25:36;;;;;;;;;;;;;;;;;;5072563;28;19908;-59
2023/02/04 09:28:02;;;;;;;;;;;;;;;;;;5072682;28;19969;-61
2023/02/04 09:30:28;;;;;;;;;;;;;;;;;;5072602;28;20380;-61
2023/02/04 09:32:54;;;;;;;;;;;;;;;;;;5054573;28;19916;-60
2023/02/04 09:35:20;;;;;;;;;;;;;;;;;;5072415;28;20238;-56
2023/02/04 09:37:46;;;;;;;;;;;;;;;;;;5072488;28;19955;-56
2023/02/04 09:40:12;;;;;;;;;;;;;;;;;;5072601;28;19946;-59
2023/02/04 09:42:38;;;;;;;;;;;;;;;;;;5072461;28;19940;-61
2023/02/04 09:45:04;;;;;;;;;;;;;;;;;;5072351;28;19952;-61
2023/02/04 09:47:30;;;;;;;;;;;;;;;;;;5072408;28;19956;-61
2023/02/04 09:49:55;;;;;;;;;;;;;;;;;;5072398;28;20005;-59
2023/02/04 09:52:23;;;;;;;;;;;;;;;;;;5072159;28;20018;-61
2023/02/04 09:54:49;;;;;;;;;;;;;;;;;;5072075;28;19966;-59
2023/02/04 09:57:15;;;;;;;;;;;;;;;;;;5072370;28;19908;-61
2023/02/04 09:59:41;;;;;;;;;;;;;;;;;;5072711;28;19908;-60
2023/02/04 10:02:07;;;;;;;;;;;;;;;;;;5072149;28;19913;-60
2023/02/04 10:04:33;;;;;;;;;;;;;;;;;;5072146;28;20270;-59
2023/02/04 10:06:58;;;;;;;;;;;;;;;;;;5072118;28;20018;-62
2023/02/04 10:09:24;;;;;;;;;;;;;;;;;;5072114;28;19912;-60
2023/02/04 10:11:50;;;;;;;;;;;;;;;;;;5072065;28;20365;-59
2023/02/04 10:14:16;;;;;;;;;;;;;;;;;;5072114;28;19915;-60
2023/02/04 10:16:42;;;;;;;;;;;;;;;;;;5071862;28;19920;-59
2023/02/04 10:19:08;;;;;;;;;;;;;;;;;;5072156;28;20376;-56
2023/02/04 10:21:38;;;;;;;;;;;;;;;;;;5053907;28;19904;-62
2023/02/04 10:24:04;;;;;;;;;;;;;;;;;;5072048;28;19908;-61
2023/02/04 10:26:30;;;;;;;;;;;;;;;;;;5071933;28;19912;-60
2023/02/04 10:28:56;;;;;;;;;;;;;;;;;;5071951;28;19909;-61
2023/02/04 10:31:22;;;;;;;;;;;;;;;;;;5071824;28;20330;-61
2023/02/04 10:33:48;;;;;;;;;;;;;;;;;;5071807;28;20422;-61
2023/02/04 10:36:14;;;;;;;;;;;;;;;;;;5071441;28;19913;-60
2023/02/04 10:38:39;;;;;;;;;;;;;;;;;;5071858;28;19918;-62
2023/02/04 10:41:05;;;;;;;;;;;;;;;;;;5053948;28;19908;-60
2023/02/04 10:43:31;;;;;;;;;;;;;;;;;;5071847;28;19944;-61
2023/02/04 10:45:57;;;;;;;;;;;;;;;;;;5071545;28;19912;-60
2023/02/04 10:48:23;;;;;;;;;;;;;;;;;;5071737;28;19961;-61
2023/02/04 10:50:49;;;;;;;;;;;;;;;;;;5071733;28;19962;-60
2023/02/04 10:56:01;;;;;;;;;;;;;;;;;;5071508;28;19970;-62
2023/02/04 10:58:27;;;;;;;;;;;;;;;;;;5071645;28;19913;-60
2023/02/04 11:00:53;;;;;;;;;;;;;;;;;;5071612;28;19915;-59
2023/02/04 11:03:19;;;;;;;;;;;;;;;;;;5071527;28;19908;-60
2023/02/04 11:05:44;;;;;;;;;;;;;;;;;;5071411;28;19908;-59
2023/02/04 11:08:10;;;;;;;;;;;;;;;;;;5071522;28;20287;-60
2023/02/04 11:10:36;;;;;;;;;;;;;;;;;;5071471;28;20323;-61
2023/02/04 11:13:02;;;;;;;;;;;;;;;;;;5072246;28;19908;-63
2023/02/04 11:15:28;;;;;;;;;;;;;;;;;;5074948;28;20395;-61
2023/02/04 11:17:54;;;;;;;;;;;;;;;;;;5075151;28;19936;-63
2023/02/04 11:20:20;;;;;;;;;;;;;;;;;;5075109;28;19916;-61
2023/02/04 11:22:52;;;;;;;;;;;;;;;;;;5075101;28;19916;-61
2023/02/04 11:25:18;;;;;;;;;;;;;;;;;;5074910;28;19954;-62
2023/02/04 11:27:44;;;;;;;;;;;;;;;;;;5074977;28;19908;-60
2023/02/04 11:30:10;;;;;;;;;;;;;;;;;;5074919;28;19908;-61
2023/02/04 11:32:36;;;;;;;;;;;;;;;;;;5074809;28;19962;-61
2023/02/04 11:35:02;;;;;;;;;;;;;;;;;;5074660;28;19909;-59
2023/02/04 11:37:29;;;;;;;;;;;;;;;;;;5074873;28;19908;-61
2023/02/04 11:39:54;;;;;;;;;;;;;;;;;;5074763;28;19909;-61
2023/02/04 11:42:20;;;;;;;;;;;;;;;;;;5074743;28;19917;-60
2023/02/04 11:44:46;;;;;;;;;;;;;;;;;;5056604;28;19913;-58
2023/02/04 11:47:12;;;;;;;;;;;;;;;;;;5074620;28;19999;-61
2023/02/04 11:49:38;;;;;;;;;;;;;;;;;;5056836;28;20042;-61
2023/02/04 11:52:07;;;;;;;;;;;;;;;;;;5094348;28;20355;-61
2023/02/04 11:54:33;;;;;;;;;;;;;;;;;;5093282;28;19920;-63
2023/02/04 11:57:00;;;;;;;;;;;;;;;;;;5093560;28;19912;-63
2023/02/04 11:59:25;;;;;;;;;;;;;;;;;;5093431;28;19913;-64
2023/02/04 12:01:51;;;;;;;;;;;;;;;;;;5097516;28;20012;-61
2023/02/04 12:04:17;;;;;;;;;;;;;;;;;;5075362;28;19948;-61
2023/02/04 12:06:43;;;;;;;;;;;;;;;;;;5093231;28;20284;-64
2023/02/04 12:09:09;;;;;;;;;;;;;;;;;;5076746;28;20430;-63
2023/02/04 12:11:35;;;;;;;;;;;;;;;;;;5094960;28;19912;-61
2023/02/04 12:14:01;;;;;;;;;;;;;;;;;;5095421;28;19908;-62
2023/02/04 12:16:27;;;;;;;;;;;;;;;;;;5098222;28;19927;-60
2023/02/04 12:18:54;;;;;;;;;;;;;;;;;;5093071;28;19908;-60
2023/02/04 12:21:20;;;;;;;;;;;;;;;;;;5101591;28;19959;-61
2023/02/04 12:23:46;;;;;;;;;;;;;;;;;;5109035;28;20416;-60
2023/02/04 12:26:12;;;;;;;;;;;;;;;;;;5095578;28;19916;-61
2023/02/04 12:28:38;;;;;;;;;;;;;;;;;;5095914;28;19916;-62
2023/02/04 12:31:04;;;;;;;;;;;;;;;;;;5089209;28;19915;-63
2023/02/04 12:33:29;;;;;;;;;;;;;;;;;;5112843;28;19911;-60
2023/02/04 12:35:55;;;;;;;;;;;;;;;;;;5104225;28;20388;-61
2023/02/04 12:38:21;;;;;;;;;;;;;;;;;;5098303;28;19926;-58
2023/02/04 12:40:47;;;;;;;;;;;;;;;;;;5085087;28;19919;-61
2023/02/04 12:43:13;;;;;;;;;;;;;;;;;;5099794;28;19995;-62
2023/02/04 12:45:44;;;;;;;;;;;;;;;;;;5099908;28;20002;-61
2023/02/04 12:48:12;;;;;;;;;;;;;;;;;;5084321;28;20423;-63
2023/02/04 12:50:38;;;;;;;;;;;;;;;;;;5082658;28;19959;-62
2023/02/04 12:53:05;;;;;;;;;;;;;;;;;;5035790;28;1840813;-62
2023/02/04 12:55:31;;;;;;;;;;;;;;;;;;5093366;28;19939;-60
2023/02/04 12:57:57;;;;;;;;;;;;;;;;;;5093400;28;20424;-61
2023/02/04 13:00:23;;;;;;;;;;;;;;;;;;5079833;28;20023;-58
2023/02/04 13:02:49;;;;;;;;;;;;;;;;;;5093230;28;19921;-61
2023/02/04 13:05:15;;;;;;;;;;;;;;;;;;5093214;28;19908;-59
2023/02/04 13:07:41;;;;;;;;;;;;;;;;;;5093096;28;19908;-59
2023/02/04 13:10:06;;;;;;;;;;;;;;;;;;5074931;28;19908;-63
2023/02/04 13:12:32;;;;;;;;;;;;;;;;;;5093063;28;19915;-62
2023/02/04 13:14:58;;;;;;;;;;;;;;;;;;5092965;28;19908;-63
2023/02/04 13:17:24;;;;;;;;;;;;;;;;;;5112424;28;19919;-61
2023/02/04 13:19:50;;;;;;;;;;;;;;;;;;5113442;28;19914;-61
2023/02/04 13:22:16;;;;;;;;;;;;;;;;;;5095830;28;20003;-60
2023/02/04 13:24:42;;;;;;;;;;;;;;;;;;5092753;28;19908;-61
2023/02/04 13:27:08;;;;;;;;;;;;;;;;;;5085822;28;19912;-61
2023/02/04 13:29:34;;;;;;;;;;;;;;;;;;5092803;28;19915;-60
2023/02/04 13:32:00;;;;;;;;;;;;;;;;;;5109067;28;20006;-61
2023/02/04 13:34:26;;;;;;;;;;;;;;;;;;5093023;28;20026;-61
2023/02/04 13:36:52;;;;;;;;;;;;;;;;;;5112608;28;19912;-59
2023/02/04 13:39:18;;;;;;;;;;;;;;;;;;5113219;28;19994;-61
2023/02/04 13:41:45;;;;;;;;;;;;;;;;;;5112688;28;20370;-60
2023/02/04 13:44:11;;;;;;;;;;;;;;;;;;5111262;28;19912;-60
2023/02/04 13:46:37;;;;;;;;;;;;;;;;;;5099816;28;20045;-61
2023/02/04 13:49:02;;;;;;;;;;;;;;;;;;5092988;28;19950;-59
2023/02/04 13:51:29;;;;;;;;;;;;;;;;;;5109469;28;19978;-60
2023/02/04 13:53:55;;;;;;;;;;;;;;;;;;5112916;28;20308;-60
2023/02/04 13:56:21;;;;;;;;;;;;;;;;;;5093160;28;20111;-63
2023/02/04 13:58:47;;;;;;;;;;;;;;;;;;5092435;28;19908;-63
2023/02/04 14:01:13;;;;;;;;;;;;;;;;;;5095829;28;19927;-63
2023/02/04 14:03:39;;;;;;;;;;;;;;;;;;5093436;28;20000;-60
2023/02/04 14:06:05;;;;;;;;;;;;;;;;;;5092242;28;19947;-61
2023/02/04 14:08:30;;;;;;;;;;;;;;;;;;5092251;28;19946;-59
2023/02/04 14:10:56;;;;;;;;;;;;;;;;;;5092287;28;19904;-59
2023/02/04 14:13:22;;;;;;;;;;;;;;;;;;5092051;28;20276;-61
2023/02/04 14:15:48;;;;;;;;;;;;;;;;;;5100824;28;20011;-59
2023/02/04 14:18:15;;;;;;;;;;;;;;;;;;5092085;28;19935;-60
2023/02/04 14:20:41;;;;;;;;;;;;;;;;;;5109478;28;19915;-59
2023/02/04 14:23:07;;;;;;;;;;;;;;;;;;5112373;28;20304;-60
2023/02/04 14:25:33;;;;;;;;;;;;;;;;;;5112106;28;19911;-59
2023/02/04 14:27:59;;;;;;;;;;;;;;;;;;5112512;28;20375;-61
2023/02/04 14:30:25;;;;;;;;;;;;;;;;;;5111004;28;20505;-62
2023/02/04 14:32:51;;;;;;;;;;;;;;;;;;5112176;28;20045;-62
2023/02/04 14:35:16;;;;;;;;;;;;;;;;;;5099428;28;19920;-61
2023/02/04 14:37:42;;;;;;;;;;;;;;;;;;5091937;28;19916;-62
2023/02/04 14:40:08;;;;;;;;;;;;;;;;;;5081342;28;19912;-62
2023/02/04 14:42:37;;;;;;;;;;;;;;;;;;5096135;28;19919;-62
2023/02/04 14:45:04;;;;;;;;;;;;;;;;;;5091753;28;19944;-61
2023/02/04 14:47:30;;;;;;;;;;;;;;;;;;5098849;28;20372;-59
2023/02/04 14:49:56;;;;;;;;;;;;;;;;;;5075639;28;19908;-62
2023/02/04 14:52:22;;;;;;;;;;;;;;;;;;5128053;22;19928;-63
2023/02/04 14:54:48;;;;;;;;;;;;;;;;;;5124929;27;19923;-63
2023/02/04 14:57:14;;;;;;;;;;;;;;;;;;5115855;28;19942;-63
2023/02/04 14:59:40;;;;;;;;;;;;;;;;;;5127289;27;19915;-63
2023/02/04 15:02:06;;;;;;;;;;;;;;;;;;5097639;28;20291;-63
2023/02/04 15:04:31;;;;;;;;;;;;;;;;;;5115920;28;20356;-64
2023/02/04 15:06:57;;;;;;;;;;;;;;;;;;5097668;27;20284;-63
2023/02/04 15:09:23;;;;;;;;;;;;;;;;;;5115828;28;20291;-63
2023/02/04 15:11:49;;;;;;;;;;;;;;;;;;5115980;28;19912;-63
2023/02/04 15:14:15;;;;;;;;;;;;;;;;;;5116087;28;19915;-63
2023/02/04 15:16:43;;;;;;;;;;;;;;;;;;5115856;27;19916;-63
2023/02/04 15:19:09;;;;;;;;;;;;;;;;;;5134080;27;19946;-63
2023/02/04 15:21:35;;;;;;;;;;;;;;;;;;5136007;27;20443;-62
2023/02/04 15:24:01;;;;;;;;;;;;;;;;;;5136274;27;19908;-62
2023/02/04 15:26:27;;;;;;;;;;;;;;;;;;5136127;27;20006;-64
2023/02/04 15:28:54;;;;;;;;;;;;;;;;;;5131604;27;20260;-64
2023/02/04 15:31:20;;;;;;;;;;;;;;;;;;5126845;27;19930;-65
2023/02/04 15:33:46;;;;;;;;;;;;;;;;;;5115487;28;20372;-65
2023/02/04 15:36:12;;;;;;;;;;;;;;;;;;5115110;28;20010;-62
2023/02/04 15:38:38;;;;;;;;;;;;;;;;;;5115496;28;19911;-62
2023/02/04 15:41:04;;;;;;;;;;;;;;;;;;5114287;28;20113;-63
2023/02/04 15:43:30;;;;;;;;;;;;;;;;;;5115296;27;19931;-62
2023/02/04 15:45:56;;;;;;;;;;;;;;;;;;5122601;27;20307;-62
2023/02/04 15:48:23;;;;;;;;;;;;;;;;;;5134329;27;20368;-62
2023/02/04 15:50:48;;;;;;;;;;;;;;;;;;5115310;27;19919;-62
2023/02/04 15:53:14;;;;;;;;;;;;;;;;;;5131371;27;19919;-62
2023/02/04 15:55:40;;;;;;;;;;;;;;;;;;5126227;27;19922;-62
2023/02/04 15:58:06;;;;;;;;;;;;;;;;;;5115160;28;19915;-62
2023/02/04 16:00:32;;;;;;;;;;;;;;;;;;5114707;28;19908;-62
2023/02/04 16:02:58;;;;;;;;;;;;;;;;;;5115019;28;19915;-62
2023/02/04 16:05:24;;;;;;;;;;;;;;;;;;5114868;28;20107;-62
2023/02/04 16:07:50;;;;;;;;;;;;;;;;;;5113670;28;20004;-62
2023/02/04 16:10:16;;;;;;;;;;;;;;;;;;5115276;27;19907;-62
2023/02/04 16:12:42;;;;;;;;;;;;;;;;;;5114768;27;20296;-64
2023/02/04 16:15:08;;;;;;;;;;;;;;;;;;5132304;27;19952;-64
2023/02/04 16:17:34;;;;;;;;;;;;;;;;;;5114759;28;19915;-64
2023/02/04 16:20:00;;;;;;;;;;;;;;;;;;5114866;27;20372;-64
2023/02/04 16:22:26;;;;;;;;;;;;;;;;;;5114867;28;19911;-64
2023/02/04 16:24:52;;;;;;;;;;;;;;;;;;5113105;28;20372;-64
2023/02/04 16:27:18;;;;;;;;;;;;;;;;;;5117009;27;19991;-64
2023/02/04 16:29:44;;;;;;;;;;;;;;;;;;5134971;27;19907;-64
2023/02/04 16:32:10;;;;;;;;;;;;;;;;;;5127714;27;19908;-64
2023/02/04 16:34:36;;;;;;;;;;;;;;;;;;5114353;28;19907;-64
2023/02/04 16:37:02;;;;;;;;;;;;;;;;;;5096034;28;20026;-64
2023/02/04 16:39:28;;;;;;;;;;;;;;;;;;5114286;28;19915;-64
2023/02/04 16:41:53;;;;;;;;;;;;;;;;;;5114235;28;19908;-64